sensor_id;sensor_type;location;lat;lon;timestamp;P1;durP1;ratioP1;P2;durP2;ratioP2
25980;SDS011;13772;52.996;9.124;2022-12-07T09:19:17;3.33;;;0.80;;
25980;SDS011;13772;52.996;9.124;2022-12-07T09:21:42;4.25;;;0.73;;
25980;SDS011;13772;52.996;9.124;2022-12-07T09:24:07;2.60;;;0.80;;
25980;SDS011;13772;52.996;9.124;2022-12-07T09:26:34;4.10;;;0.90;;
25980;SDS011;13772;52.996;9.124;2022-12-07T09:29:00;3.40;;;0.73;;
25980;SDS011;13772;52.996;9.124;2022-12-07T09:31:25;2.33;;;0.80;;
25980;SDS011;13772;52.996;9.124;2022-12-07T09:33:58;3.15;;;0.93;;
25980;SDS011;13772;52.996;9.124;2022-12-07T09:36:24;3.13;;;0.82;;
25980;SDS011;13772;52.996;9.124;2022-12-07T09:38:49;4.65;;;1.00;;
25980;SDS011;13772;52.996;9.124;2022-12-07T09:41:14;4.05;;;0.70;;
25980;SDS011;13772;52.996;9.124;2022-12-07T09:43:40;4.63;;;0.82;;
25980;SDS011;13772;52.996;9.124;2022-12-07T09:46:06;6.97;;;0.95;;
25980;SDS011;13772;52.996;9.124;2022-12-07T09:50:57;7.10;;;1.00;;
25980;SDS011;13772;52.996;9.124;2022-12-07T09:53:36;5.43;;;1.20;;
25980;SDS011;13772;52.996;9.124;2022-12-07T09:56:02;3.55;;;0.90;;
25980;SDS011;13772;52.996;9.124;2022-12-07T09:58:28;2.35;;;0.93;;
25980;SDS011;13772;52.996;9.124;2022-12-07T10:00:55;5.28;;;1.00;;
25980;SDS011;13772;52.996;9.124;2022-12-07T10:03:21;3.60;;;0.90;;
25980;SDS011;13772;52.996;9.124;2022-12-07T10:05:48;3.80;;;0.98;;
25980;SDS011;13772;52.996;9.124;2022-12-07T10:08:14;3.45;;;0.68;;
25980;SDS011;13772;52.996;9.124;2022-12-07T10:10:42;2.20;;;0.80;;
25980;SDS011;13772;52.996;9.124;2022-12-07T10:13:08;2.97;;;0.82;;
25980;SDS011;13772;52.996;9.124;2022-12-07T10:15:40;4.65;;;0.90;;
25980;SDS011;13772;52.996;9.124;2022-12-07T10:18:13;5.57;;;1.30;;
25980;SDS011;13772;52.996;9.124;2022-12-07T10:20:39;4.13;;;1.05;;
25980;SDS011;13772;52.996;9.124;2022-12-07T10:23:05;1.77;;;0.98;;
25980;SDS011;13772;52.996;9.124;2022-12-07T10:25:34;5.43;;;1.45;;
25980;SDS011;13772;52.996;9.124;2022-12-07T10:30:25;5.50;;;1.35;;
25980;SDS011;13772;52.996;9.124;2022-12-07T10:32:51;4.82;;;1.55;;
25980;SDS011;13772;52.996;9.124;2022-12-07T10:35:25;6.03;;;2.03;;
25980;SDS011;13772;52.996;9.124;2022-12-07T10:37:51;3.83;;;1.42;;
25980;SDS011;13772;52.996;9.124;2022-12-07T10:40:23;5.55;;;1.48;;
25980;SDS011;13772;52.996;9.124;2022-12-07T10:43:02;4.97;;;1.27;;
25980;SDS011;13772;52.996;9.124;2022-12-07T10:45:28;5.78;;;1.38;;
25980;SDS011;13772;52.996;9.124;2022-12-07T10:48:39;6.20;;;1.58;;
25980;SDS011;13772;52.996;9.124;2022-12-07T10:58:31;5.30;;;1.05;;
25980;SDS011;13772;52.996;9.124;2022-12-07T11:13:52;4.47;;;1.17;;
25980;SDS011;13772;52.996;9.124;2022-12-07T11:16:28;5.18;;;1.35;;
25980;SDS011;13772;52.996;9.124;2022-12-07T11:22:28;7.22;;;1.20;;
25980;SDS011;13772;52.996;9.124;2022-12-07T11:25:30;8.05;;;1.40;;
25980;SDS011;13772;52.996;9.124;2022-12-07T11:29:53;3.53;;;1.02;;
25980;SDS011;13772;52.996;9.124;2022-12-07T11:37:28;3.42;;;1.08;;
25980;SDS011;13772;52.996;9.124;2022-12-07T11:39:55;4.70;;;1.00;;
25980;SDS011;13772;52.996;9.124;2022-12-07T11:42:35;4.47;;;1.25;;
25980;SDS011;13772;52.996;9.124;2022-12-07T11:45:15;4.65;;;1.40;;
25980;SDS011;13772;52.996;9.124;2022-12-07T11:47:54;2.88;;;1.15;;
25980;SDS011;13772;52.996;9.124;2022-12-07T11:50:24;5.28;;;1.70;;
25980;SDS011;13772;52.996;9.124;2022-12-07T11:52:52;5.78;;;1.38;;
25980;SDS011;13772;52.996;9.124;2022-12-07T11:55:26;5.88;;;1.40;;
25980;SDS011;13772;52.996;9.124;2022-12-07T11:58:03;6.55;;;1.13;;
25980;SDS011;13772;52.996;9.124;2022-12-07T12:00:28;7.60;;;1.35;;
25980;SDS011;13772;52.996;9.124;2022-12-07T12:05:22;4.85;;;0.88;;
25980;SDS011;13772;52.996;9.124;2022-12-07T12:07:50;7.25;;;1.35;;
25980;SDS011;13772;52.996;9.124;2022-12-07T12:10:19;5.88;;;1.30;;
25980;SDS011;13772;52.996;9.124;2022-12-07T12:12:50;9.45;;;1.67;;
25980;SDS011;13772;52.996;9.124;2022-12-07T12:20:43;6.65;;;1.40;;
25980;SDS011;13772;52.996;9.124;2022-12-07T12:25:45;6.03;;;1.30;;
25980;SDS011;13772;52.996;9.124;2022-12-07T12:28:22;7.03;;;1.13;;
25980;SDS011;13772;52.996;9.124;2022-12-07T12:31:04;6.72;;;1.20;;
25980;SDS011;13772;52.996;9.124;2022-12-07T12:33:30;8.43;;;1.95;;
25980;SDS011;13772;52.996;9.124;2022-12-07T12:44:02;11.10;;;1.60;;
25980;SDS011;13772;52.996;9.124;2022-12-07T12:51:52;8.55;;;1.85;;
25980;SDS011;13772;52.996;9.124;2022-12-07T12:56:46;6.32;;;1.42;;
25980;SDS011;13772;52.996;9.124;2022-12-07T13:01:49;9.90;;;1.60;;
25980;SDS011;13772;52.996;9.124;2022-12-07T13:04:25;12.25;;;2.13;;
25980;SDS011;13772;52.996;9.124;2022-12-07T13:06:52;6.80;;;2.25;;
25980;SDS011;13772;52.996;9.124;2022-12-07T13:11:47;9.65;;;2.55;;
25980;SDS011;13772;52.996;9.124;2022-12-07T13:14:35;9.10;;;3.03;;
25980;SDS011;13772;52.996;9.124;2022-12-07T13:17:07;7.97;;;2.08;;
25980;SDS011;13772;52.996;9.124;2022-12-07T13:25:17;4.10;;;0.93;;
25980;SDS011;13772;52.996;9.124;2022-12-07T13:27:37;4.22;;;0.80;;
25980;SDS011;13772;52.996;9.124;2022-12-07T13:30:09;4.93;;;1.20;;
25980;SDS011;13772;52.996;9.124;2022-12-07T13:32:38;4.85;;;1.08;;
25980;SDS011;13772;52.996;9.124;2022-12-07T13:35:26;3.45;;;0.90;;
25980;SDS011;13772;52.996;9.124;2022-12-07T13:37:49;3.97;;;1.30;;
25980;SDS011;13772;52.996;9.124;2022-12-07T13:40:18;6.65;;;1.50;;
25980;SDS011;13772;52.996;9.124;2022-12-07T13:42:44;5.60;;;1.67;;
25980;SDS011;13772;52.996;9.124;2022-12-07T13:47:48;6.93;;;1.58;;
25980;SDS011;13772;52.996;9.124;2022-12-07T13:52:48;8.43;;;1.98;;
25980;SDS011;13772;52.996;9.124;2022-12-07T13:55:15;5.15;;;2.40;;
25980;SDS011;13772;52.996;9.124;2022-12-07T13:57:41;7.28;;;2.38;;
25980;SDS011;13772;52.996;9.124;2022-12-07T14:00:17;6.90;;;2.35;;
25980;SDS011;13772;52.996;9.124;2022-12-07T14:02:57;6.07;;;2.35;;
25980;SDS011;13772;52.996;9.124;2022-12-07T14:05:34;5.78;;;2.20;;
25980;SDS011;13772;52.996;9.124;2022-12-07T14:08:01;4.20;;;2.20;;
25980;SDS011;13772;52.996;9.124;2022-12-07T14:10:28;5.57;;;2.30;;
25980;SDS011;13772;52.996;9.124;2022-12-07T14:12:54;4.00;;;2.45;;
25980;SDS011;13772;52.996;9.124;2022-12-07T14:15:20;7.53;;;3.10;;
25980;SDS011;13772;52.996;9.124;2022-12-07T14:17:50;8.50;;;3.25;;
25980;SDS011;13772;52.996;9.124;2022-12-07T14:20:31;4.45;;;2.15;;
25980;SDS011;13772;52.996;9.124;2022-12-07T14:22:57;6.85;;;2.53;;
25980;SDS011;13772;52.996;9.124;2022-12-07T14:25:23;6.60;;;2.90;;
25980;SDS011;13772;52.996;9.124;2022-12-07T14:27:50;5.20;;;2.30;;
25980;SDS011;13772;52.996;9.124;2022-12-07T14:30:16;4.65;;;2.35;;
25980;SDS011;13772;52.996;9.124;2022-12-07T14:32:41;7.20;;;2.30;;
25980;SDS011;13772;52.996;9.124;2022-12-07T14:35:09;5.15;;;2.40;;
25980;SDS011;13772;52.996;9.124;2022-12-07T14:37:35;4.60;;;2.50;;
25980;SDS011;13772;52.996;9.124;2022-12-07T14:40:01;6.22;;;2.53;;
25980;SDS011;13772;52.996;9.124;2022-12-07T14:42:27;7.30;;;2.22;;
25980;SDS011;13772;52.996;9.124;2022-12-07T14:44:53;7.63;;;2.28;;
25980;SDS011;13772;52.996;9.124;2022-12-07T14:47:19;6.72;;;2.72;;
25980;SDS011;13772;52.996;9.124;2022-12-07T14:49:44;8.60;;;3.15;;
25980;SDS011;13772;52.996;9.124;2022-12-07T14:52:11;8.68;;;3.22;;
25980;SDS011;13772;52.996;9.124;2022-12-07T14:54:38;6.90;;;2.90;;
25980;SDS011;13772;52.996;9.124;2022-12-07T14:57:03;6.95;;;3.00;;
25980;SDS011;13772;52.996;9.124;2022-12-07T14:59:28;8.55;;;2.13;;
25980;SDS011;13772;52.996;9.124;2022-12-07T15:01:54;7.53;;;2.42;;
25980;SDS011;13772;52.996;9.124;2022-12-07T15:04:19;6.53;;;2.60;;
25980;SDS011;13772;52.996;9.124;2022-12-07T15:06:54;7.90;;;2.28;;
25980;SDS011;13772;52.996;9.124;2022-12-07T15:09:20;5.13;;;1.98;;
25980;SDS011;13772;52.996;9.124;2022-12-07T15:11:45;6.43;;;2.13;;
25980;SDS011;13772;52.996;9.124;2022-12-07T15:14:10;7.43;;;2.17;;
25980;SDS011;13772;52.996;9.124;2022-12-07T15:16:38;4.95;;;1.92;;
25980;SDS011;13772;52.996;9.124;2022-12-07T15:19:05;6.95;;;2.13;;
25980;SDS011;13772;52.996;9.124;2022-12-07T15:21:30;4.88;;;1.77;;
25980;SDS011;13772;52.996;9.124;2022-12-07T15:23:55;6.10;;;1.80;;
25980;SDS011;13772;52.996;9.124;2022-12-07T15:26:21;7.43;;;2.28;;
25980;SDS011;13772;52.996;9.124;2022-12-07T15:28:46;4.93;;;1.98;;
25980;SDS011;13772;52.996;9.124;2022-12-07T15:31:12;6.38;;;1.98;;
25980;SDS011;13772;52.996;9.124;2022-12-07T15:33:37;9.18;;;2.50;;
25980;SDS011;13772;52.996;9.124;2022-12-07T15:36:02;6.80;;;1.98;;
25980;SDS011;13772;52.996;9.124;2022-12-07T15:38:28;7.32;;;2.10;;
25980;SDS011;13772;52.996;9.124;2022-12-07T15:40:55;7.20;;;2.00;;
25980;SDS011;13772;52.996;9.124;2022-12-07T15:43:20;5.38;;;1.80;;
25980;SDS011;13772;52.996;9.124;2022-12-07T15:46:04;9.55;;;1.70;;
25980;SDS011;13772;52.996;9.124;2022-12-07T15:48:29;12.50;;;1.92;;
25980;SDS011;13772;52.996;9.124;2022-12-07T15:51:01;7.70;;;2.08;;
25980;SDS011;13772;52.996;9.124;2022-12-07T15:53:26;5.88;;;1.90;;
25980;SDS011;13772;52.996;9.124;2022-12-07T15:55:52;7.07;;;2.40;;
25980;SDS011;13772;52.996;9.124;2022-12-07T15:58:17;7.35;;;2.22;;
25980;SDS011;13772;52.996;9.124;2022-12-07T16:00:42;7.47;;;2.63;;
25980;SDS011;13772;52.996;9.124;2022-12-07T16:03:07;7.63;;;2.50;;
25980;SDS011;13772;52.996;9.124;2022-12-07T16:05:33;6.00;;;2.13;;
25980;SDS011;13772;52.996;9.124;2022-12-07T16:07:58;6.33;;;2.57;;
25980;SDS011;13772;52.996;9.124;2022-12-07T16:10:23;7.40;;;2.67;;
25980;SDS011;13772;52.996;9.124;2022-12-07T16:12:49;7.20;;;3.33;;
25980;SDS011;13772;52.996;9.124;2022-12-07T16:15:14;13.30;;;4.60;;
25980;SDS011;13772;52.996;9.124;2022-12-07T16:17:40;7.47;;;3.05;;
25980;SDS011;13772;52.996;9.124;2022-12-07T16:20:05;3.90;;;2.20;;
25980;SDS011;13772;52.996;9.124;2022-12-07T16:22:31;7.88;;;1.88;;
25980;SDS011;13772;52.996;9.124;2022-12-07T16:24:56;5.88;;;1.88;;
25980;SDS011;13772;52.996;9.124;2022-12-07T16:27:21;5.05;;;1.58;;
25980;SDS011;13772;52.996;9.124;2022-12-07T16:29:46;4.10;;;1.50;;
25980;SDS011;13772;52.996;9.124;2022-12-07T16:32:12;3.88;;;1.75;;
25980;SDS011;13772;52.996;9.124;2022-12-07T16:34:37;6.17;;;2.00;;
25980;SDS011;13772;52.996;9.124;2022-12-07T16:37:04;5.38;;;1.65;;
25980;SDS011;13772;52.996;9.124;2022-12-07T16:39:29;5.25;;;1.38;;
25980;SDS011;13772;52.996;9.124;2022-12-07T16:41:54;4.03;;;1.77;;
25980;SDS011;13772;52.996;9.124;2022-12-07T16:44:19;8.73;;;1.70;;
25980;SDS011;13772;52.996;9.124;2022-12-07T16:46:45;6.73;;;2.83;;
25980;SDS011;13772;52.996;9.124;2022-12-07T16:49:11;10.45;;;4.43;;
25980;SDS011;13772;52.996;9.124;2022-12-07T16:51:36;11.45;;;4.93;;
25980;SDS011;13772;52.996;9.124;2022-12-07T16:54:02;6.10;;;1.92;;
25980;SDS011;13772;52.996;9.124;2022-12-07T16:56:27;4.22;;;2.17;;
25980;SDS011;13772;52.996;9.124;2022-12-07T16:58:54;7.13;;;2.83;;
25980;SDS011;13772;52.996;9.124;2022-12-07T17:01:20;6.40;;;1.80;;
25980;SDS011;13772;52.996;9.124;2022-12-07T17:03:47;4.78;;;1.48;;
25980;SDS011;13772;52.996;9.124;2022-12-07T17:06:14;6.35;;;1.60;;
25980;SDS011;13772;52.996;9.124;2022-12-07T17:08:40;8.60;;;2.10;;
25980;SDS011;13772;52.996;9.124;2022-12-07T17:11:15;5.80;;;2.00;;
25980;SDS011;13772;52.996;9.124;2022-12-07T17:13:41;7.82;;;2.30;;
25980;SDS011;13772;52.996;9.124;2022-12-07T17:16:25;9.10;;;2.50;;
25980;SDS011;13772;52.996;9.124;2022-12-07T17:18:50;5.43;;;2.85;;
25980;SDS011;13772;52.996;9.124;2022-12-07T17:21:16;8.70;;;2.53;;
25980;SDS011;13772;52.996;9.124;2022-12-07T17:23:41;6.28;;;2.55;;
25980;SDS011;13772;52.996;9.124;2022-12-07T17:26:07;8.88;;;2.63;;
25980;SDS011;13772;52.996;9.124;2022-12-07T17:28:34;6.15;;;2.30;;
25980;SDS011;13772;52.996;9.124;2022-12-07T17:30:59;7.43;;;2.77;;
25980;SDS011;13772;52.996;9.124;2022-12-07T17:33:24;10.95;;;3.00;;
25980;SDS011;13772;52.996;9.124;2022-12-07T17:35:49;6.18;;;2.70;;
25980;SDS011;13772;52.996;9.124;2022-12-07T17:38:15;11.65;;;3.25;;
25980;SDS011;13772;52.996;9.124;2022-12-07T17:40:40;6.32;;;2.90;;
25980;SDS011;13772;52.996;9.124;2022-12-07T17:43:05;8.60;;;3.08;;
25980;SDS011;13772;52.996;9.124;2022-12-07T17:45:31;6.53;;;3.10;;
25980;SDS011;13772;52.996;9.124;2022-12-07T17:47:56;8.63;;;2.70;;
25980;SDS011;13772;52.996;9.124;2022-12-07T17:50:21;5.07;;;2.33;;
25980;SDS011;13772;52.996;9.124;2022-12-07T17:53:07;7.10;;;2.80;;
25980;SDS011;13772;52.996;9.124;2022-12-07T17:55:36;4.30;;;2.33;;
25980;SDS011;13772;52.996;9.124;2022-12-07T17:58:01;6.43;;;3.17;;
25980;SDS011;13772;52.996;9.124;2022-12-07T18:00:26;7.65;;;3.10;;
25980;SDS011;13772;52.996;9.124;2022-12-07T18:02:51;4.68;;;2.58;;
25980;SDS011;13772;52.996;9.124;2022-12-07T18:05:17;6.28;;;2.53;;
25980;SDS011;13772;52.996;9.124;2022-12-07T18:07:42;5.60;;;2.50;;
25980;SDS011;13772;52.996;9.124;2022-12-07T18:10:07;5.15;;;2.60;;
25980;SDS011;13772;52.996;9.124;2022-12-07T18:12:33;5.10;;;3.17;;
25980;SDS011;13772;52.996;9.124;2022-12-07T18:14:59;4.38;;;2.95;;
25980;SDS011;13772;52.996;9.124;2022-12-07T18:17:24;5.10;;;2.90;;
25980;SDS011;13772;52.996;9.124;2022-12-07T18:19:49;7.60;;;3.43;;
25980;SDS011;13772;52.996;9.124;2022-12-07T18:22:14;6.80;;;4.20;;
25980;SDS011;13772;52.996;9.124;2022-12-07T18:24:40;6.78;;;4.28;;
25980;SDS011;13772;52.996;9.124;2022-12-07T18:27:05;8.90;;;4.25;;
25980;SDS011;13772;52.996;9.124;2022-12-07T18:29:30;7.13;;;4.32;;
25980;SDS011;13772;52.996;9.124;2022-12-07T18:31:56;8.52;;;4.80;;
25980;SDS011;13772;52.996;9.124;2022-12-07T18:34:21;8.32;;;4.75;;
25980;SDS011;13772;52.996;9.124;2022-12-07T18:36:47;8.13;;;4.23;;
25980;SDS011;13772;52.996;9.124;2022-12-07T18:39:14;8.00;;;4.50;;
25980;SDS011;13772;52.996;9.124;2022-12-07T18:41:39;7.28;;;4.40;;
25980;SDS011;13772;52.996;9.124;2022-12-07T18:44:05;8.63;;;4.35;;
25980;SDS011;13772;52.996;9.124;2022-12-07T18:46:31;8.88;;;4.25;;
25980;SDS011;13772;52.996;9.124;2022-12-07T18:48:56;8.07;;;4.95;;
25980;SDS011;13772;52.996;9.124;2022-12-07T18:51:22;7.25;;;5.18;;
25980;SDS011;13772;52.996;9.124;2022-12-07T18:53:47;9.50;;;5.60;;
25980;SDS011;13772;52.996;9.124;2022-12-07T18:56:14;10.80;;;5.35;;
25980;SDS011;13772;52.996;9.124;2022-12-07T18:58:40;12.73;;;5.18;;
25980;SDS011;13772;52.996;9.124;2022-12-07T19:01:25;9.95;;;5.70;;
25980;SDS011;13772;52.996;9.124;2022-12-07T19:03:51;9.43;;;4.93;;
25980;SDS011;13772;52.996;9.124;2022-12-07T19:06:16;9.90;;;5.95;;
25980;SDS011;13772;52.996;9.124;2022-12-07T19:08:41;13.07;;;6.40;;
25980;SDS011;13772;52.996;9.124;2022-12-07T19:11:07;10.85;;;6.15;;
25980;SDS011;13772;52.996;9.124;2022-12-07T19:13:52;14.50;;;7.20;;
25980;SDS011;13772;52.996;9.124;2022-12-07T19:16:17;8.65;;;5.40;;
25980;SDS011;13772;52.996;9.124;2022-12-07T19:18:42;8.70;;;5.47;;
25980;SDS011;13772;52.996;9.124;2022-12-07T19:21:07;12.45;;;5.10;;
25980;SDS011;13772;52.996;9.124;2022-12-07T19:23:33;9.85;;;4.35;;
25980;SDS011;13772;52.996;9.124;2022-12-07T19:25:58;10.77;;;5.55;;
25980;SDS011;13772;52.996;9.124;2022-12-07T19:28:23;10.90;;;4.75;;
25980;SDS011;13772;52.996;9.124;2022-12-07T19:30:48;9.75;;;4.75;;
25980;SDS011;13772;52.996;9.124;2022-12-07T19:33:14;8.25;;;4.70;;
25980;SDS011;13772;52.996;9.124;2022-12-07T19:35:39;6.93;;;4.85;;
25980;SDS011;13772;52.996;9.124;2022-12-07T19:38:04;10.00;;;4.90;;
25980;SDS011;13772;52.996;9.124;2022-12-07T19:40:30;8.23;;;4.83;;
25980;SDS011;13772;52.996;9.124;2022-12-07T19:42:55;10.82;;;5.05;;
25980;SDS011;13772;52.996;9.124;2022-12-07T19:45:20;7.95;;;4.32;;
25980;SDS011;13772;52.996;9.124;2022-12-07T19:47:45;9.32;;;4.95;;
25980;SDS011;13772;52.996;9.124;2022-12-07T19:50:11;6.97;;;4.35;;
25980;SDS011;13772;52.996;9.124;2022-12-07T19:52:36;8.23;;;4.78;;
25980;SDS011;13772;52.996;9.124;2022-12-07T19:55:01;9.20;;;5.17;;
25980;SDS011;13772;52.996;9.124;2022-12-07T19:57:26;8.18;;;5.68;;
25980;SDS011;13772;52.996;9.124;2022-12-07T19:59:52;8.52;;;5.00;;
25980;SDS011;13772;52.996;9.124;2022-12-07T20:02:17;9.77;;;5.30;;
25980;SDS011;13772;52.996;9.124;2022-12-07T20:04:42;8.45;;;5.72;;
25980;SDS011;13772;52.996;9.124;2022-12-07T20:07:08;12.55;;;6.72;;
25980;SDS011;13772;52.996;9.124;2022-12-07T20:09:33;12.38;;;6.80;;
25980;SDS011;13772;52.996;9.124;2022-12-07T20:11:59;10.07;;;6.75;;
25980;SDS011;13772;52.996;9.124;2022-12-07T20:14:56;12.55;;;6.43;;
25980;SDS011;13772;52.996;9.124;2022-12-07T20:17:23;12.80;;;6.95;;
25980;SDS011;13772;52.996;9.124;2022-12-07T20:19:48;14.23;;;7.60;;
25980;SDS011;13772;52.996;9.124;2022-12-07T20:22:13;9.38;;;5.85;;
25980;SDS011;13772;52.996;9.124;2022-12-07T20:24:38;9.40;;;6.13;;
25980;SDS011;13772;52.996;9.124;2022-12-07T20:27:04;14.37;;;6.80;;
25980;SDS011;13772;52.996;9.124;2022-12-07T20:29:29;10.80;;;5.90;;
25980;SDS011;13772;52.996;9.124;2022-12-07T20:31:54;8.70;;;6.10;;
25980;SDS011;13772;52.996;9.124;2022-12-07T20:34:20;9.80;;;6.00;;
25980;SDS011;13772;52.996;9.124;2022-12-07T20:36:46;8.95;;;5.50;;
25980;SDS011;13772;52.996;9.124;2022-12-07T20:39:11;8.27;;;5.07;;
25980;SDS011;13772;52.996;9.124;2022-12-07T20:41:37;8.32;;;4.45;;
25980;SDS011;13772;52.996;9.124;2022-12-07T20:44:21;8.27;;;4.60;;
25980;SDS011;13772;52.996;9.124;2022-12-07T20:46:46;9.27;;;5.00;;
25980;SDS011;13772;52.996;9.124;2022-12-07T20:49:12;9.63;;;4.87;;
25980;SDS011;13772;52.996;9.124;2022-12-07T20:51:38;11.10;;;4.63;;
25980;SDS011;13772;52.996;9.124;2022-12-07T20:54:03;6.70;;;4.73;;
25980;SDS011;13772;52.996;9.124;2022-12-07T20:56:30;10.00;;;4.85;;
25980;SDS011;13772;52.996;9.124;2022-12-07T20:58:56;8.30;;;4.40;;
25980;SDS011;13772;52.996;9.124;2022-12-07T21:01:22;11.30;;;4.77;;
25980;SDS011;13772;52.996;9.124;2022-12-07T21:03:47;11.20;;;4.90;;
25980;SDS011;13772;52.996;9.124;2022-12-07T21:06:13;11.57;;;4.90;;
25980;SDS011;13772;52.996;9.124;2022-12-07T21:08:42;9.52;;;4.50;;
25980;SDS011;13772;52.996;9.124;2022-12-07T21:11:07;6.75;;;4.18;;
25980;SDS011;13772;52.996;9.124;2022-12-07T21:13:33;7.88;;;4.75;;
25980;SDS011;13772;52.996;9.124;2022-12-07T21:15:58;10.52;;;4.72;;
25980;SDS011;13772;52.996;9.124;2022-12-07T21:18:23;8.63;;;4.60;;
25980;SDS011;13772;52.996;9.124;2022-12-07T21:20:49;7.97;;;5.00;;
25980;SDS011;13772;52.996;9.124;2022-12-07T21:23:14;9.73;;;4.28;;
25980;SDS011;13772;52.996;9.124;2022-12-07T21:25:39;10.70;;;4.25;;
25980;SDS011;13772;52.996;9.124;2022-12-07T21:28:04;7.30;;;4.57;;
25980;SDS011;13772;52.996;9.124;2022-12-07T21:30:30;9.63;;;4.53;;
25980;SDS011;13772;52.996;9.124;2022-12-07T21:32:55;8.47;;;4.30;;
25980;SDS011;13772;52.996;9.124;2022-12-07T21:35:20;9.70;;;4.65;;
25980;SDS011;13772;52.996;9.124;2022-12-07T21:37:46;10.00;;;4.70;;
25980;SDS011;13772;52.996;9.124;2022-12-07T21:40:11;11.30;;;4.63;;
25980;SDS011;13772;52.996;9.124;2022-12-07T21:42:36;7.70;;;4.38;;
25980;SDS011;13772;52.996;9.124;2022-12-07T21:45:02;8.77;;;4.85;;
25980;SDS011;13772;52.996;9.124;2022-12-07T21:47:27;11.18;;;4.88;;
25980;SDS011;13772;52.996;9.124;2022-12-07T21:49:52;6.22;;;4.30;;
25980;SDS011;13772;52.996;9.124;2022-12-07T21:52:17;9.65;;;4.50;;
25980;SDS011;13772;52.996;9.124;2022-12-07T21:54:43;8.32;;;4.63;;
25980;SDS011;13772;52.996;9.124;2022-12-07T21:57:09;9.45;;;5.00;;
25980;SDS011;13772;52.996;9.124;2022-12-07T21:59:34;9.63;;;4.15;;
25980;SDS011;13772;52.996;9.124;2022-12-07T22:01:59;10.20;;;4.80;;
25980;SDS011;13772;52.996;9.124;2022-12-07T22:04:25;8.15;;;4.70;;
25980;SDS011;13772;52.996;9.124;2022-12-07T22:06:50;11.90;;;4.63;;
25980;SDS011;13772;52.996;9.124;2022-12-07T22:09:16;9.85;;;4.00;;
25980;SDS011;13772;52.996;9.124;2022-12-07T22:11:43;9.77;;;5.30;;
25980;SDS011;13772;52.996;9.124;2022-12-07T22:14:08;10.32;;;4.63;;
25980;SDS011;13772;52.996;9.124;2022-12-07T22:16:52;8.40;;;4.18;;
25980;SDS011;13772;52.996;9.124;2022-12-07T22:19:17;9.70;;;4.07;;
25980;SDS011;13772;52.996;9.124;2022-12-07T22:21:43;9.73;;;3.92;;
25980;SDS011;13772;52.996;9.124;2022-12-07T22:24:08;7.13;;;4.30;;
25980;SDS011;13772;52.996;9.124;2022-12-07T22:26:34;8.88;;;3.85;;
25980;SDS011;13772;52.996;9.124;2022-12-07T22:28:59;8.67;;;4.27;;
25980;SDS011;13772;52.996;9.124;2022-12-07T22:31:25;11.60;;;4.22;;
25980;SDS011;13772;52.996;9.124;2022-12-07T22:33:50;9.67;;;4.43;;
25980;SDS011;13772;52.996;9.124;2022-12-07T22:36:16;11.40;;;4.25;;
25980;SDS011;13772;52.996;9.124;2022-12-07T22:38:41;7.75;;;3.97;;
25980;SDS011;13772;52.996;9.124;2022-12-07T22:41:11;9.57;;;4.30;;
25980;SDS011;13772;52.996;9.124;2022-12-07T22:46:02;11.93;;;4.23;;
25980;SDS011;13772;52.996;9.124;2022-12-07T22:48:27;8.35;;;4.30;;
25980;SDS011;13772;52.996;9.124;2022-12-07T22:50:53;8.05;;;3.95;;
25980;SDS011;13772;52.996;9.124;2022-12-07T22:53:19;9.18;;;3.97;;
25980;SDS011;13772;52.996;9.124;2022-12-07T22:55:44;9.23;;;4.17;;
